ADDS METAR Data INFO
IDs: Format: Raw Decoded Include TAF

Data at: 0142 UTC 18 Oct 2017

KGYB 180135Z AUTO 00000KT 10SM CLR 14/09 A3017 RMK AO2 T01400086
KGYB 180115Z AUTO 00000KT 10SM CLR 15/09 A3017 RMK AO2 T01500091
KGYB 180055Z AUTO 00000KT 10SM CLR 16/09 A3016 RMK AO2 T01580090
KGYB 180035Z AUTO 00000KT 10SM CLR 17/09 A3016 RMK AO2 T01650092
KGYB 180015Z AUTO 00000KT 10SM CLR 19/09 A3016 RMK AO2 T01860091
KGYB 172355Z AUTO 00000KT 10SM CLR 21/09 A3016 RMK AO2 T02100085 10244 20210
KGYB 172335Z AUTO 00000KT 10SM CLR 23/07 A3016 RMK AO2 T02270070
KGYB 172315Z AUTO 00000KT 10SM CLR 23/06 A3016 RMK AO2 T02340064
KGYB 172255Z AUTO 00000KT 10SM CLR 24/07 A3016 RMK AO2 T02360069
KGYB 172235Z AUTO 02004KT 10SM CLR 24/06 A3016 RMK AO2 T02380064
KGYB 172215Z AUTO 01003KT 10SM CLR 24/06 A3017 RMK AO2 T02380063
KGYB 172155Z AUTO 00000KT 10SM CLR 24/06 A3017 RMK AO2 T02380063
KGYB 172135Z AUTO 03004KT 10SM CLR 24/06 A3018 RMK AO2 T02400063
KGYB 172115Z AUTO 00000KT 10SM CLR 24/06 A3018 RMK AO2 T02430063
KGYB 172055Z AUTO 07003KT 10SM CLR 24/06 A3018 RMK AO2 T02400060
KGYB 172035Z AUTO 05003KT 10SM CLR 23/06 A3019 RMK AO2 T02330060
KGYB 172015Z AUTO 03004KT 10SM CLR 23/06 A3020 RMK AO2 T02320059
KGYB 171955Z AUTO 00000KT 10SM CLR 23/06 A3021 RMK AO2 T02260059
KGYB 171935Z AUTO 01006KT 10SM CLR 23/06 A3022 RMK AO2 T02260057
KGYB 171915Z AUTO 00000KT 10SM CLR 22/06 A3023 RMK AO2 T02240058
KGYB 171855Z AUTO 36004KT 10SM CLR 22/06 A3024 RMK AO2 T02200058
KGYB 171835Z AUTO 04005KT 10SM CLR 22/06 A3025 RMK AO2 T02200059
KGYB 171815Z AUTO 04004KT 10SM CLR 22/06 A3026 RMK AO2 T02150058
KGYB 171755Z AUTO 07004KT 10SM CLR 21/06 A3027 RMK AO2 T02120058 10212 20079
KGYB 171735Z AUTO 36005KT 10SM CLR 20/07 A3028 RMK AO2 T02040066
KGYB 171715Z AUTO 07004KT 10SM CLR 20/06 A3030 RMK AO2 T02030059
KGYB 171655Z AUTO 07003KT 10SM CLR 20/06 A3031 RMK AO2 T01950058
KGYB 171635Z AUTO 09005KT 10SM CLR 19/05 A3031 RMK AO2 T01930050
KGYB 171615Z AUTO 07007KT 10SM CLR 19/05 A3031 RMK AO2 T01890051
KGYB 171555Z AUTO 10005KT 10SM CLR 18/05 A3032 RMK AO2 T01830052
KGYB 171535Z AUTO 09005KT 10SM CLR 17/07 A3032 RMK AO2 T01730071
KGYB 171515Z AUTO 09007KT 10SM CLR 17/08 A3032 RMK AO2 T01650075
KGYB 171455Z AUTO 06003KT 10SM CLR 15/08 A3032 RMK AO2 T01500083
KGYB 171435Z AUTO 03003KT 10SM CLR 13/08 A3032 RMK AO2 T01330076
KGYB 171415Z AUTO 05004KT 10SM CLR 13/07 A3031 RMK AO2 T01260071
KGYB 171355Z AUTO 04003KT 10SM CLR 12/07 A3030 RMK AO2 T01170065
KGYB 171335Z AUTO 05003KT 10SM CLR 10/07 A3030 RMK AO2 T01010068
KGYB 171315Z AUTO 00000KT 10SM CLR 09/06 A3029 RMK AO2 T00920060
KGYB 171255Z AUTO 00000KT 10SM CLR 08/05 A3028 RMK AO2 T00800054
KGYB 171235Z AUTO 00000KT 10SM CLR 09/06 A3029 RMK AO2 T00940056
KGYB 171215Z AUTO 00000KT 10SM CLR 09/06 A3028 RMK AO2 T00900056
KGYB 171155Z AUTO 34004KT 10SM CLR 09/05 A3027 RMK AO2 T00910054 10136 20086
KGYB 171135Z AUTO 00000KT 10SM CLR 10/06 A3027 RMK AO2 T00960055
KGYB 171115Z AUTO 35003KT 10SM CLR 10/06 A3027 RMK AO2 T00960058
KGYB 171055Z AUTO 00000KT 10SM CLR 10/06 A3027 RMK AO2 T00980057
KGYB 171035Z AUTO 00000KT 10SM CLR 10/06 A3027 RMK AO2 T01000058
KGYB 171015Z AUTO 00000KT 10SM CLR 09/06 A3026 RMK AO2 T00930062
KGYB 170955Z AUTO 00000KT 10SM CLR 09/06 A3026 RMK AO2 T00930061
KGYB 170935Z AUTO 00000KT 10SM CLR 09/06 A3026 RMK AO2 T00930061
KGYB 170920Z AUTO 00000KT 10SM CLR 10/06 A3026 RMK AO2 T01000060
KGYB 170855Z AUTO 01003KT 10SM CLR 11/06 A3026 RMK AO2 T01130061
KGYB 170835Z AUTO 36003KT 10SM CLR 11/06 A3027 RMK AO2 T01100061
KGYB 170815Z AUTO 01003KT 10SM CLR 12/06 A3027 RMK AO2 T01170061
KGYB 170755Z AUTO 01004KT 10SM CLR 12/06 A3027 RMK AO2 T01220061
KGYB 170735Z AUTO 01004KT 10SM CLR 12/06 A3027 RMK AO2 T01220061
KGYB 170715Z AUTO 01003KT 10SM CLR 12/06 A3026 RMK AO2 T01230061
KGYB 170655Z AUTO 01003KT 10SM CLR 13/06 A3026 RMK AO2 T01270062
KGYB 170635Z AUTO 01003KT 10SM CLR 14/06 A3026 RMK AO2 T01350060
KGYB 170615Z AUTO 01003KT 10SM CLR 14/06 A3026 RMK AO2 T01350061
KGYB 170555Z AUTO 01003KT 10SM CLR 13/06 A3027 RMK AO2 T01270062 10211 20125 402370121
KGYB 170535Z AUTO 00000KT 10SM CLR 13/07 A3027 RMK AO2 T01280068
KGYB 170515Z AUTO 00000KT 10SM CLR 14/06 A3028 RMK AO2 T01350062
KGYB 170455Z AUTO 00000KT 10SM CLR 14/06 A3028 RMK AO2 T01410061
KGYB 170435Z AUTO 00000KT 10SM CLR 14/06 A3028 RMK AO2 T01440062
KGYB 170415Z AUTO 01003KT 10SM CLR 15/06 A3028 RMK AO2 T01490060
KGYB 170355Z AUTO 01003KT 10SM CLR 14/07 A3029 RMK AO2 T01420065
KGYB 170335Z AUTO 00000KT 10SM CLR 15/07 A3028 RMK AO2 T01460066
KGYB 170315Z AUTO 01003KT 10SM CLR 16/06 A3028 RMK AO2 T01580060
KGYB 170255Z AUTO 02004KT 10SM CLR 16/06 A3028 RMK AO2 T01620060
KGYB 170235Z AUTO 02004KT 10SM CLR 16/06 A3027 RMK AO2 T01620063
KGYB 170215Z AUTO 02003KT 10SM CLR 16/06 A3027 RMK AO2 T01600064
KGYB 170155Z AUTO 02003KT 10SM CLR 15/07 A3027 RMK AO2 T01460068
KGYB 170135Z AUTO 36003KT 10SM CLR 17/06 A3026 RMK AO2 T01730061
KGYB 170115Z AUTO 00000KT 10SM CLR 15/08 A3026 RMK AO2 T01460075
KGYB 170055Z AUTO 00000KT 10SM CLR 17/07 A3025 RMK AO2 T01650071
KGYB 170035Z AUTO 00000KT 10SM CLR 19/06 A3024 RMK AO2 T01890061
KGYB 170015Z AUTO 01003KT 10SM CLR 20/06 A3024 RMK AO2 T02020055
KGYB 162355Z AUTO 01005KT 10SM CLR 21/05 A3023 RMK AO2 T02120050 10237 20206
KGYB 162335Z AUTO 01007KT 10SM CLR 22/05 A3022 RMK AO2 T02200051
KGYB 162315Z AUTO 01008KT 10SM CLR 23/05 A3022 RMK AO2 T02250050
KGYB 162255Z AUTO 02007KT 10SM CLR 23/05 A3022 RMK AO2 T02300052
KGYB 162235Z AUTO 01009G15KT 10SM CLR 23/05 A3022 RMK AO2 T02310049
KGYB 162215Z AUTO 01009G14KT 10SM CLR 23/05 A3022 RMK AO2 T02340050
KGYB 162155Z AUTO 35009KT 10SM CLR 23/05 A3022 RMK AO2 T02330051
KGYB 162135Z AUTO 35008G14KT 320V020 10SM CLR 24/05 A3022 RMK AO2 T02360052
KGYB 162115Z AUTO 36007G17KT 10SM CLR 23/05 A3022 RMK AO2 T02320050
KGYB 162055Z AUTO 34009G17KT 10SM CLR 24/05 A3022 RMK AO2 T02350053
KGYB 162035Z AUTO 02010G19KT 10SM CLR 23/06 A3023 RMK AO2 T02310058
KGYB 162015Z AUTO 02010G17KT 10SM CLR 23/06 A3024 RMK AO2 T02300058
KGYB 161955Z AUTO 36012G17KT 10SM CLR 23/06 A3025 RMK AO2 T02260058
KGYB 161935Z AUTO 35008G17KT 10SM CLR 22/06 A3026 RMK AO2 T02230057
KGYB 161915Z AUTO 02005G15KT 10SM CLR 22/06 A3028 RMK AO2 T02190061
KGYB 161855Z AUTO 36008G14KT 330V040 10SM CLR 21/06 A3029 RMK AO2 T02140061
KGYB 161835Z AUTO 01008G15KT 350V050 10SM CLR 21/07 A3030 RMK AO2 T02120065
KGYB 161815Z AUTO 01010G16KT 10SM CLR 21/06 A3032 RMK AO2 T02090062
KGYB 161755Z AUTO 01007KT 10SM CLR 21/06 A3033 RMK AO2 T02060064 10206 20121
KGYB 161735Z AUTO 04007KT 10SM CLR 20/07 A3034 RMK AO2 T02030068
KGYB 161715Z AUTO 01005G14KT 10SM CLR 20/07 A3035 RMK AO2 T01960067
KGYB 161655Z AUTO 03010G15KT 360V060 10SM CLR 19/07 A3036 RMK AO2 T01890066
KGYB 161635Z AUTO 02010G15KT 10SM CLR 19/07 A3037 RMK AO2 T01900070
KGYB 161615Z AUTO 04007KT 020V080 10SM CLR 18/07 A3037 RMK AO2 T01830069
KGYB 161555Z AUTO 02008KT 340V060 10SM CLR 18/07 A3037 RMK AO2 T01800072
KGYB 161535Z AUTO 04008KT 010V070 10SM CLR 18/07 A3037 RMK AO2 T01750069
KGYB 161515Z AUTO 05009G14KT 10SM CLR 17/07 A3037 RMK AO2 T01680068
KGYB 161455Z AUTO 04009G15KT 10SM CLR 16/07 A3037 RMK AO2 T01590067
KGYB 161435Z AUTO 04005G15KT 360V080 10SM CLR 15/07 A3036 RMK AO2 T01500067
KGYB 161415Z AUTO 02007KT 10SM CLR 14/07 A3035 RMK AO2 T01420065
KGYB 161355Z AUTO 01007G14KT 10SM CLR 13/06 A3035 RMK AO2 T01340063